sensor_id;sensor_type;location;lat;lon;timestamp;P1;durP1;ratioP1;P2;durP2;ratioP2
8831;SDS011;4452;50.756;4.472;2023-09-30T00:02:11;7.00;;;4.43;;
8831;SDS011;4452;50.756;4.472;2023-09-30T00:04:38;5.78;;;3.85;;
8831;SDS011;4452;50.756;4.472;2023-09-30T00:07:04;8.00;;;4.00;;
8831;SDS011;4452;50.756;4.472;2023-09-30T00:09:30;9.43;;;4.25;;
8831;SDS011;4452;50.756;4.472;2023-09-30T00:11:56;9.50;;;4.00;;
8831;SDS011;4452;50.756;4.472;2023-09-30T00:14:22;15.07;;;5.05;;
8831;SDS011;4452;50.756;4.472;2023-09-30T00:16:49;8.57;;;4.38;;
8831;SDS011;4452;50.756;4.472;2023-09-30T00:19:15;14.85;;;4.75;;
8831;SDS011;4452;50.756;4.472;2023-09-30T00:21:42;9.50;;;4.63;;
8831;SDS011;4452;50.756;4.472;2023-09-30T00:24:07;12.55;;;4.45;;
8831;SDS011;4452;50.756;4.472;2023-09-30T00:26:34;11.18;;;4.28;;
8831;SDS011;4452;50.756;4.472;2023-09-30T00:29:00;13.13;;;4.47;;
8831;SDS011;4452;50.756;4.472;2023-09-30T00:31:29;12.23;;;4.45;;
8831;SDS011;4452;50.756;4.472;2023-09-30T00:33:55;9.93;;;4.05;;
8831;SDS011;4452;50.756;4.472;2023-09-30T00:36:21;10.13;;;3.53;;
8831;SDS011;4452;50.756;4.472;2023-09-30T00:38:47;13.43;;;4.53;;
8831;SDS011;4452;50.756;4.472;2023-09-30T00:41:13;8.75;;;4.78;;
8831;SDS011;4452;50.756;4.472;2023-09-30T00:43:39;11.52;;;4.68;;
8831;SDS011;4452;50.756;4.472;2023-09-30T00:46:13;13.02;;;5.55;;
8831;SDS011;4452;50.756;4.472;2023-09-30T00:48:52;11.82;;;4.30;;
8831;SDS011;4452;50.756;4.472;2023-09-30T00:51:19;14.45;;;5.28;;
8831;SDS011;4452;50.756;4.472;2023-09-30T00:53:46;13.75;;;5.50;;
8831;SDS011;4452;50.756;4.472;2023-09-30T00:56:12;11.65;;;5.05;;
8831;SDS011;4452;50.756;4.472;2023-09-30T00:58:38;18.88;;;5.68;;
8831;SDS011;4452;50.756;4.472;2023-09-30T01:01:05;13.00;;;4.88;;
8831;SDS011;4452;50.756;4.472;2023-09-30T01:03:31;16.20;;;5.30;;
8831;SDS011;4452;50.756;4.472;2023-09-30T01:05:57;9.50;;;4.95;;
8831;SDS011;4452;50.756;4.472;2023-09-30T01:08:23;11.85;;;5.32;;
8831;SDS011;4452;50.756;4.472;2023-09-30T01:10:48;16.88;;;5.50;;
8831;SDS011;4452;50.756;4.472;2023-09-30T01:13:16;19.25;;;6.47;;
8831;SDS011;4452;50.756;4.472;2023-09-30T01:15:41;18.90;;;6.45;;
8831;SDS011;4452;50.756;4.472;2023-09-30T01:18:07;17.55;;;6.00;;
8831;SDS011;4452;50.756;4.472;2023-09-30T01:20:33;22.45;;;6.53;;
8831;SDS011;4452;50.756;4.472;2023-09-30T01:22:59;17.75;;;5.60;;
8831;SDS011;4452;50.756;4.472;2023-09-30T01:25:25;17.23;;;6.20;;
8831;SDS011;4452;50.756;4.472;2023-09-30T01:27:52;16.02;;;6.28;;
8831;SDS011;4452;50.756;4.472;2023-09-30T01:30:19;22.92;;;6.10;;
8831;SDS011;4452;50.756;4.472;2023-09-30T01:32:47;25.30;;;6.75;;
8831;SDS011;4452;50.756;4.472;2023-09-30T01:35:13;14.55;;;5.00;;
8831;SDS011;4452;50.756;4.472;2023-09-30T01:37:39;12.00;;;5.20;;
8831;SDS011;4452;50.756;4.472;2023-09-30T01:40:05;16.27;;;4.35;;
8831;SDS011;4452;50.756;4.472;2023-09-30T01:42:37;12.25;;;5.10;;
8831;SDS011;4452;50.756;4.472;2023-09-30T01:45:03;21.13;;;6.03;;
8831;SDS011;4452;50.756;4.472;2023-09-30T01:47:29;18.50;;;5.97;;
8831;SDS011;4452;50.756;4.472;2023-09-30T01:49:55;15.82;;;5.70;;
8831;SDS011;4452;50.756;4.472;2023-09-30T01:52:21;28.25;;;8.43;;
8831;SDS011;4452;50.756;4.472;2023-09-30T01:54:47;21.83;;;6.45;;
8831;SDS011;4452;50.756;4.472;2023-09-30T01:57:12;19.85;;;7.97;;
8831;SDS011;4452;50.756;4.472;2023-09-30T01:59:38;22.10;;;7.13;;
8831;SDS011;4452;50.756;4.472;2023-09-30T02:02:04;26.10;;;7.47;;
8831;SDS011;4452;50.756;4.472;2023-09-30T02:04:30;31.20;;;7.38;;
8831;SDS011;4452;50.756;4.472;2023-09-30T02:06:56;27.27;;;8.02;;
8831;SDS011;4452;50.756;4.472;2023-09-30T02:09:21;27.20;;;8.65;;
8831;SDS011;4452;50.756;4.472;2023-09-30T02:11:47;30.85;;;8.55;;
8831;SDS011;4452;50.756;4.472;2023-09-30T02:14:13;30.25;;;8.90;;
8831;SDS011;4452;50.756;4.472;2023-09-30T02:16:39;32.45;;;8.90;;
8831;SDS011;4452;50.756;4.472;2023-09-30T02:19:05;28.90;;;8.82;;
8831;SDS011;4452;50.756;4.472;2023-09-30T02:21:31;35.45;;;8.05;;
8831;SDS011;4452;50.756;4.472;2023-09-30T02:23:57;31.95;;;9.02;;
8831;SDS011;4452;50.756;4.472;2023-09-30T02:26:23;36.53;;;9.23;;
8831;SDS011;4452;50.756;4.472;2023-09-30T02:28:51;26.38;;;8.18;;
8831;SDS011;4452;50.756;4.472;2023-09-30T02:31:18;15.77;;;5.97;;
8831;SDS011;4452;50.756;4.472;2023-09-30T02:33:44;15.10;;;5.30;;
8831;SDS011;4452;50.756;4.472;2023-09-30T02:36:11;12.43;;;4.35;;
8831;SDS011;4452;50.756;4.472;2023-09-30T02:38:37;18.88;;;4.63;;
8831;SDS011;4452;50.756;4.472;2023-09-30T02:41:03;18.60;;;6.30;;
8831;SDS011;4452;50.756;4.472;2023-09-30T02:43:30;27.90;;;6.57;;
8831;SDS011;4452;50.756;4.472;2023-09-30T02:45:56;14.80;;;5.20;;
8831;SDS011;4452;50.756;4.472;2023-09-30T02:48:21;15.32;;;5.03;;
8831;SDS011;4452;50.756;4.472;2023-09-30T02:50:47;18.40;;;6.45;;
8831;SDS011;4452;50.756;4.472;2023-09-30T02:53:13;23.75;;;6.50;;
8831;SDS011;4452;50.756;4.472;2023-09-30T02:55:42;19.15;;;7.20;;
8831;SDS011;4452;50.756;4.472;2023-09-30T02:58:08;22.98;;;6.43;;
8831;SDS011;4452;50.756;4.472;2023-09-30T03:00:37;21.63;;;6.32;;
8831;SDS011;4452;50.756;4.472;2023-09-30T03:03:03;18.42;;;5.65;;
8831;SDS011;4452;50.756;4.472;2023-09-30T03:05:29;21.92;;;6.40;;
8831;SDS011;4452;50.756;4.472;2023-09-30T03:07:58;18.35;;;6.35;;
8831;SDS011;4452;50.756;4.472;2023-09-30T03:10:25;24.58;;;7.38;;
8831;SDS011;4452;50.756;4.472;2023-09-30T03:12:58;19.48;;;6.22;;
8831;SDS011;4452;50.756;4.472;2023-09-30T03:15:27;28.52;;;6.97;;
8831;SDS011;4452;50.756;4.472;2023-09-30T03:17:57;23.42;;;8.05;;
8831;SDS011;4452;50.756;4.472;2023-09-30T03:20:24;35.05;;;8.18;;
8831;SDS011;4452;50.756;4.472;2023-09-30T03:22:51;34.88;;;9.55;;
8831;SDS011;4452;50.756;4.472;2023-09-30T03:25:17;29.05;;;8.65;;
8831;SDS011;4452;50.756;4.472;2023-09-30T03:27:44;35.03;;;8.68;;
8831;SDS011;4452;50.756;4.472;2023-09-30T03:30:14;36.17;;;9.45;;
8831;SDS011;4452;50.756;4.472;2023-09-30T03:32:40;35.67;;;8.63;;
8831;SDS011;4452;50.756;4.472;2023-09-30T03:35:07;41.45;;;9.73;;
8831;SDS011;4452;50.756;4.472;2023-09-30T03:37:42;31.55;;;8.70;;
8831;SDS011;4452;50.756;4.472;2023-09-30T03:40:08;38.45;;;9.77;;
8831;SDS011;4452;50.756;4.472;2023-09-30T03:42:39;28.83;;;8.80;;
8831;SDS011;4452;50.756;4.472;2023-09-30T03:45:07;23.92;;;8.18;;
8831;SDS011;4452;50.756;4.472;2023-09-30T03:47:35;43.10;;;9.32;;
8831;SDS011;4452;50.756;4.472;2023-09-30T03:50:02;35.38;;;8.63;;
8831;SDS011;4452;50.756;4.472;2023-09-30T03:52:28;29.33;;;8.65;;
8831;SDS011;4452;50.756;4.472;2023-09-30T03:54:54;35.33;;;8.77;;
8831;SDS011;4452;50.756;4.472;2023-09-30T03:57:20;34.75;;;9.23;;
8831;SDS011;4452;50.756;4.472;2023-09-30T03:59:46;32.13;;;7.82;;
8831;SDS011;4452;50.756;4.472;2023-09-30T04:02:12;28.50;;;8.50;;
8831;SDS011;4452;50.756;4.472;2023-09-30T04:04:39;41.05;;;10.43;;
8831;SDS011;4452;50.756;4.472;2023-09-30T04:07:05;42.17;;;10.32;;
8831;SDS011;4452;50.756;4.472;2023-09-30T04:09:31;40.28;;;9.70;;
8831;SDS011;4452;50.756;4.472;2023-09-30T04:11:58;45.40;;;9.38;;
8831;SDS011;4452;50.756;4.472;2023-09-30T04:14:23;42.88;;;10.38;;
8831;SDS011;4452;50.756;4.472;2023-09-30T04:16:50;50.03;;;10.98;;
8831;SDS011;4452;50.756;4.472;2023-09-30T04:19:16;44.95;;;10.60;;
8831;SDS011;4452;50.756;4.472;2023-09-30T04:21:42;34.22;;;10.77;;
8831;SDS011;4452;50.756;4.472;2023-09-30T04:24:08;37.60;;;10.43;;
8831;SDS011;4452;50.756;4.472;2023-09-30T04:26:34;37.65;;;10.32;;
8831;SDS011;4452;50.756;4.472;2023-09-30T04:29:00;61.83;;;13.73;;
8831;SDS011;4452;50.756;4.472;2023-09-30T04:31:27;52.65;;;12.18;;
8831;SDS011;4452;50.756;4.472;2023-09-30T04:33:53;54.85;;;12.35;;
8831;SDS011;4452;50.756;4.472;2023-09-30T04:36:19;53.65;;;12.52;;
8831;SDS011;4452;50.756;4.472;2023-09-30T04:38:46;76.55;;;13.50;;
8831;SDS011;4452;50.756;4.472;2023-09-30T04:41:12;68.40;;;14.07;;
8831;SDS011;4452;50.756;4.472;2023-09-30T04:43:38;59.20;;;13.88;;
8831;SDS011;4452;50.756;4.472;2023-09-30T04:46:04;55.53;;;12.95;;
8831;SDS011;4452;50.756;4.472;2023-09-30T04:48:32;55.05;;;13.10;;
8831;SDS011;4452;50.756;4.472;2023-09-30T04:50:58;51.35;;;12.63;;
8831;SDS011;4452;50.756;4.472;2023-09-30T04:53:23;36.55;;;11.70;;
8831;SDS011;4452;50.756;4.472;2023-09-30T04:55:49;43.33;;;11.80;;
8831;SDS011;4452;50.756;4.472;2023-09-30T04:58:15;37.97;;;11.13;;
8831;SDS011;4452;50.756;4.472;2023-09-30T05:00:41;65.05;;;13.82;;
8831;SDS011;4452;50.756;4.472;2023-09-30T05:03:08;46.75;;;13.18;;
8831;SDS011;4452;50.756;4.472;2023-09-30T05:05:33;46.10;;;13.13;;
8831;SDS011;4452;50.756;4.472;2023-09-30T05:08:00;57.70;;;14.27;;
8831;SDS011;4452;50.756;4.472;2023-09-30T05:10:26;75.78;;;15.57;;
8831;SDS011;4452;50.756;4.472;2023-09-30T05:12:52;87.25;;;17.60;;
8831;SDS011;4452;50.756;4.472;2023-09-30T05:15:20;63.95;;;16.80;;
8831;SDS011;4452;50.756;4.472;2023-09-30T05:17:47;88.82;;;17.65;;
8831;SDS011;4452;50.756;4.472;2023-09-30T05:20:14;91.15;;;18.65;;
8831;SDS011;4452;50.756;4.472;2023-09-30T05:22:45;77.45;;;19.67;;
8831;SDS011;4452;50.756;4.472;2023-09-30T05:25:15;81.38;;;17.27;;
8831;SDS011;4452;50.756;4.472;2023-09-30T05:27:41;87.45;;;19.25;;
8831;SDS011;4452;50.756;4.472;2023-09-30T05:30:08;105.68;;;20.50;;
8831;SDS011;4452;50.756;4.472;2023-09-30T05:32:35;87.60;;;20.92;;
8831;SDS011;4452;50.756;4.472;2023-09-30T05:35:04;97.45;;;20.92;;
8831;SDS011;4452;50.756;4.472;2023-09-30T05:37:31;82.53;;;20.48;;
8831;SDS011;4452;50.756;4.472;2023-09-30T05:39:57;107.32;;;20.27;;
8831;SDS011;4452;50.756;4.472;2023-09-30T05:42:22;99.25;;;18.83;;
8831;SDS011;4452;50.756;4.472;2023-09-30T05:44:48;77.50;;;17.17;;
8831;SDS011;4452;50.756;4.472;2023-09-30T05:47:14;79.90;;;16.90;;
8831;SDS011;4452;50.756;4.472;2023-09-30T05:49:40;82.55;;;16.92;;
8831;SDS011;4452;50.756;4.472;2023-09-30T05:52:06;68.45;;;15.80;;
8831;SDS011;4452;50.756;4.472;2023-09-30T05:54:32;72.05;;;15.95;;
8831;SDS011;4452;50.756;4.472;2023-09-30T05:56:58;80.70;;;14.30;;
8831;SDS011;4452;50.756;4.472;2023-09-30T05:59:25;63.60;;;14.25;;
8831;SDS011;4452;50.756;4.472;2023-09-30T06:01:53;66.70;;;15.38;;
8831;SDS011;4452;50.756;4.472;2023-09-30T06:04:18;64.13;;;14.68;;
8831;SDS011;4452;50.756;4.472;2023-09-30T06:06:46;75.03;;;14.05;;
8831;SDS011;4452;50.756;4.472;2023-09-30T06:09:11;67.35;;;14.80;;
8831;SDS011;4452;50.756;4.472;2023-09-30T06:11:37;71.50;;;14.43;;
8831;SDS011;4452;50.756;4.472;2023-09-30T06:14:03;58.10;;;13.57;;
8831;SDS011;4452;50.756;4.472;2023-09-30T06:16:31;58.45;;;12.32;;
8831;SDS011;4452;50.756;4.472;2023-09-30T06:18:57;58.45;;;11.50;;
8831;SDS011;4452;50.756;4.472;2023-09-30T06:21:24;55.92;;;11.38;;
8831;SDS011;4452;50.756;4.472;2023-09-30T06:23:54;53.88;;;11.10;;
8831;SDS011;4452;50.756;4.472;2023-09-30T06:26:20;53.45;;;13.00;;
8831;SDS011;4452;50.756;4.472;2023-09-30T06:28:46;42.42;;;11.73;;
8831;SDS011;4452;50.756;4.472;2023-09-30T06:31:13;49.90;;;11.70;;
8831;SDS011;4452;50.756;4.472;2023-09-30T06:33:39;54.75;;;13.02;;
8831;SDS011;4452;50.756;4.472;2023-09-30T06:36:12;55.08;;;12.70;;
8831;SDS011;4452;50.756;4.472;2023-09-30T06:38:42;60.60;;;11.50;;
8831;SDS011;4452;50.756;4.472;2023-09-30T06:41:16;51.63;;;11.20;;
8831;SDS011;4452;50.756;4.472;2023-09-30T06:43:44;54.20;;;11.75;;
8831;SDS011;4452;50.756;4.472;2023-09-30T06:46:13;41.83;;;11.15;;
8831;SDS011;4452;50.756;4.472;2023-09-30T06:48:43;48.55;;;10.13;;
8831;SDS011;4452;50.756;4.472;2023-09-30T06:51:14;47.95;;;9.70;;
8831;SDS011;4452;50.756;4.472;2023-09-30T06:53:41;39.92;;;9.98;;
8831;SDS011;4452;50.756;4.472;2023-09-30T06:56:07;39.55;;;8.93;;
8831;SDS011;4452;50.756;4.472;2023-09-30T06:58:35;35.40;;;9.10;;
8831;SDS011;4452;50.756;4.472;2023-09-30T07:01:02;39.30;;;9.02;;
8831;SDS011;4452;50.756;4.472;2023-09-30T07:03:28;28.60;;;8.52;;
8831;SDS011;4452;50.756;4.472;2023-09-30T07:05:55;30.00;;;8.18;;
8831;SDS011;4452;50.756;4.472;2023-09-30T07:08:22;42.22;;;7.85;;
8831;SDS011;4452;50.756;4.472;2023-09-30T07:10:47;37.13;;;8.27;;
8831;SDS011;4452;50.756;4.472;2023-09-30T07:13:17;41.72;;;9.02;;
8831;SDS011;4452;50.756;4.472;2023-09-30T07:15:43;38.38;;;7.93;;
8831;SDS011;4452;50.756;4.472;2023-09-30T07:18:09;30.52;;;7.93;;
8831;SDS011;4452;50.756;4.472;2023-09-30T07:20:35;29.60;;;7.88;;
8831;SDS011;4452;50.756;4.472;2023-09-30T07:23:01;31.33;;;7.55;;
8831;SDS011;4452;50.756;4.472;2023-09-30T07:25:29;29.25;;;7.65;;
8831;SDS011;4452;50.756;4.472;2023-09-30T07:28:01;30.33;;;7.35;;
8831;SDS011;4452;50.756;4.472;2023-09-30T07:30:30;32.08;;;7.50;;
8831;SDS011;4452;50.756;4.472;2023-09-30T07:32:57;26.35;;;6.82;;
8831;SDS011;4452;50.756;4.472;2023-09-30T07:35:25;26.00;;;7.32;;
8831;SDS011;4452;50.756;4.472;2023-09-30T07:37:50;24.27;;;6.75;;
8831;SDS011;4452;50.756;4.472;2023-09-30T07:40:18;42.25;;;7.07;;
8831;SDS011;4452;50.756;4.472;2023-09-30T07:42:43;28.63;;;7.50;;
8831;SDS011;4452;50.756;4.472;2023-09-30T07:45:09;29.58;;;7.18;;
8831;SDS011;4452;50.756;4.472;2023-09-30T07:47:36;26.17;;;7.35;;
8831;SDS011;4452;50.756;4.472;2023-09-30T07:50:02;35.13;;;7.43;;
8831;SDS011;4452;50.756;4.472;2023-09-30T07:52:34;22.92;;;6.10;;
8831;SDS011;4452;50.756;4.472;2023-09-30T07:55:01;16.20;;;5.53;;
8831;SDS011;4452;50.756;4.472;2023-09-30T07:57:30;25.73;;;6.18;;
8831;SDS011;4452;50.756;4.472;2023-09-30T07:59:55;22.20;;;6.50;;
8831;SDS011;4452;50.756;4.472;2023-09-30T08:02:21;31.52;;;7.32;;
8831;SDS011;4452;50.756;4.472;2023-09-30T08:04:47;24.20;;;7.30;;
8831;SDS011;4452;50.756;4.472;2023-09-30T08:07:13;39.58;;;9.15;;
8831;SDS011;4452;50.756;4.472;2023-09-30T08:09:39;26.23;;;8.25;;
8831;SDS011;4452;50.756;4.472;2023-09-30T08:12:04;31.15;;;8.52;;
8831;SDS011;4452;50.756;4.472;2023-09-30T08:14:31;24.67;;;7.53;;
8831;SDS011;4452;50.756;4.472;2023-09-30T08:16:57;12.35;;;6.15;;
8831;SDS011;4452;50.756;4.472;2023-09-30T08:19:23;28.75;;;7.47;;
8831;SDS011;4452;50.756;4.472;2023-09-30T08:21:48;27.08;;;7.90;;
8831;SDS011;4452;50.756;4.472;2023-09-30T08:24:14;29.58;;;9.00;;
8831;SDS011;4452;50.756;4.472;2023-09-30T08:26:40;27.83;;;9.00;;
8831;SDS011;4452;50.756;4.472;2023-09-30T08:29:06;13.57;;;6.32;;
8831;SDS011;4452;50.756;4.472;2023-09-30T08:31:31;25.05;;;9.15;;
8831;SDS011;4452;50.756;4.472;2023-09-30T08:33:58;32.50;;;8.68;;
8831;SDS011;4452;50.756;4.472;2023-09-30T08:36:23;29.63;;;9.02;;
8831;SDS011;4452;50.756;4.472;2023-09-30T08:38:50;26.13;;;8.60;;
8831;SDS011;4452;50.756;4.472;2023-09-30T08:41:31;23.90;;;8.40;;
8831;SDS011;4452;50.756;4.472;2023-09-30T08:43:59;23.55;;;7.15;;
8831;SDS011;4452;50.756;4.472;2023-09-30T08:46:28;20.17;;;8.13;;
8831;SDS011;4452;50.756;4.472;2023-09-30T08:49:00;30.43;;;9.27;;
8831;SDS011;4452;50.756;4.472;2023-09-30T08:51:28;21.95;;;7.93;;
8831;SDS011;4452;50.756;4.472;2023-09-30T08:53:55;31.35;;;8.95;;
8831;SDS011;4452;50.756;4.472;2023-09-30T08:56:27;30.92;;;9.35;;
8831;SDS011;4452;50.756;4.472;2023-09-30T08:58:57;18.63;;;7.13;;
8831;SDS011;4452;50.756;4.472;2023-09-30T09:01:27;26.77;;;7.70;;
8831;SDS011;4452;50.756;4.472;2023-09-30T09:03:54;22.80;;;7.22;;
8831;SDS011;4452;50.756;4.472;2023-09-30T09:06:23;24.67;;;8.75;;
8831;SDS011;4452;50.756;4.472;2023-09-30T09:08:50;26.45;;;6.97;;
8831;SDS011;4452;50.756;4.472;2023-09-30T09:11:16;27.92;;;7.60;;
8831;SDS011;4452;50.756;4.472;2023-09-30T09:13:49;22.48;;;6.70;;
8831;SDS011;4452;50.756;4.472;2023-09-30T09:16:18;27.60;;;8.18;;
8831;SDS011;4452;50.756;4.472;2023-09-30T09:18:44;11.40;;;5.18;;
8831;SDS011;4452;50.756;4.472;2023-09-30T09:21:13;16.10;;;5.03;;
8831;SDS011;4452;50.756;4.472;2023-09-30T09:23:48;15.38;;;5.13;;
8831;SDS011;4452;50.756;4.472;2023-09-30T09:26:28;14.35;;;5.35;;
8831;SDS011;4452;50.756;4.472;2023-09-30T09:28:59;15.40;;;5.07;;
8831;SDS011;4452;50.756;4.472;2023-09-30T09:31:26;28.33;;;7.13;;
8831;SDS011;4452;50.756;4.472;2023-09-30T09:33:53;14.32;;;5.47;;
8831;SDS011;4452;50.756;4.472;2023-09-30T09:36:19;23.23;;;7.22;;
8831;SDS011;4452;50.756;4.472;2023-09-30T09:38:45;13.52;;;4.32;;
8831;SDS011;4452;50.756;4.472;2023-09-30T09:41:13;24.25;;;4.90;;
8831;SDS011;4452;50.756;4.472;2023-09-30T09:43:43;14.13;;;4.30;;
8831;SDS011;4452;50.756;4.472;2023-09-30T09:46:09;12.73;;;3.83;;
8831;SDS011;4452;50.756;4.472;2023-09-30T09:48:36;12.15;;;4.40;;
8831;SDS011;4452;50.756;4.472;2023-09-30T09:51:02;8.60;;;2.65;;
8831;SDS011;4452;50.756;4.472;2023-09-30T09:53:30;10.30;;;3.42;;
8831;SDS011;4452;50.756;4.472;2023-09-30T09:55:59;14.90;;;3.67;;
8831;SDS011;4452;50.756;4.472;2023-09-30T09:58:26;16.05;;;4.63;;
8831;SDS011;4452;50.756;4.472;2023-09-30T10:00:53;9.30;;;3.65;;
8831;SDS011;4452;50.756;4.472;2023-09-30T10:03:18;15.10;;;3.75;;
8831;SDS011;4452;50.756;4.472;2023-09-30T10:05:44;9.43;;;3.65;;
8831;SDS011;4452;50.756;4.472;2023-09-30T10:08:13;14.43;;;3.88;;
8831;SDS011;4452;50.756;4.472;2023-09-30T10:10:42;7.38;;;3.10;;
8831;SDS011;4452;50.756;4.472;2023-09-30T10:13:09;9.88;;;2.65;;
8831;SDS011;4452;50.756;4.472;2023-09-30T10:15:55;8.30;;;4.35;;
8831;SDS011;4452;50.756;4.472;2023-09-30T10:18:21;8.30;;;3.15;;
8831;SDS011;4452;50.756;4.472;2023-09-30T10:20:47;7.65;;;2.90;;
8831;SDS011;4452;50.756;4.472;2023-09-30T10:23:23;6.15;;;2.90;;
8831;SDS011;4452;50.756;4.472;2023-09-30T10:25:50;10.40;;;3.72;;
8831;SDS011;4452;50.756;4.472;2023-09-30T10:28:39;7.05;;;3.03;;
8831;SDS011;4452;50.756;4.472;2023-09-30T10:31:15;8.27;;;3.35;;
8831;SDS011;4452;50.756;4.472;2023-09-30T10:38:55;7.07;;;3.05;;
8831;SDS011;4452;50.756;4.472;2023-09-30T10:46:53;8.00;;;2.90;;
8831;SDS011;4452;50.756;4.472;2023-09-30T10:51:54;6.53;;;3.10;;
8831;SDS011;4452;50.756;4.472;2023-09-30T10:54:22;4.43;;;2.80;;
8831;SDS011;4452;50.756;4.472;2023-09-30T10:56:48;11.65;;;3.05;;
8831;SDS011;4452;50.756;4.472;2023-09-30T10:59:23;5.60;;;3.33;;
8831;SDS011;4452;50.756;4.472;2023-09-30T11:01:50;5.10;;;3.17;;
8831;SDS011;4452;50.756;4.472;2023-09-30T11:04:17;4.60;;;3.00;;
8831;SDS011;4452;50.756;4.472;2023-09-30T11:06:43;4.30;;;2.83;;
8831;SDS011;4452;50.756;4.472;2023-09-30T11:09:14;10.07;;;3.60;;
8831;SDS011;4452;50.756;4.472;2023-09-30T11:11:45;6.93;;;3.05;;
8831;SDS011;4452;50.756;4.472;2023-09-30T11:14:37;8.65;;;4.57;;
8831;SDS011;4452;50.756;4.472;2023-09-30T11:17:02;7.10;;;3.20;;
8831;SDS011;4452;50.756;4.472;2023-09-30T11:19:35;6.85;;;3.28;;
8831;SDS011;4452;50.756;4.472;2023-09-30T11:22:02;4.93;;;2.95;;
8831;SDS011;4452;50.756;4.472;2023-09-30T11:24:28;4.57;;;3.28;;
8831;SDS011;4452;50.756;4.472;2023-09-30T11:26:54;9.60;;;3.60;;
8831;SDS011;4452;50.756;4.472;2023-09-30T11:29:23;7.88;;;3.10;;
8831;SDS011;4452;50.756;4.472;2023-09-30T11:31:50;3.80;;;2.80;;
8831;SDS011;4452;50.756;4.472;2023-09-30T11:34:18;7.00;;;3.00;;
8831;SDS011;4452;50.756;4.472;2023-09-30T11:36:48;7.60;;;3.40;;
8831;SDS011;4452;50.756;4.472;2023-09-30T11:39:25;8.25;;;3.30;;
8831;SDS011;4452;50.756;4.472;2023-09-30T11:41:52;5.35;;;2.80;;
8831;SDS011;4452;50.756;4.472;2023-09-30T11:44:20;4.43;;;2.90;;
8831;SDS011;4452;50.756;4.472;2023-09-30T11:46:50;6.90;;;3.33;;
8831;SDS011;4452;50.756;4.472;2023-09-30T11:52:25;8.27;;;3.10;;
8831;SDS011;4452;50.756;4.472;2023-09-30T11:54:52;5.93;;;2.55;;
8831;SDS011;4452;50.756;4.472;2023-09-30T11:57:18;8.35;;;3.15;;
8831;SDS011;4452;50.756;4.472;2023-09-30T11:59:44;6.50;;;3.30;;
8831;SDS011;4452;50.756;4.472;2023-09-30T12:02:11;6.70;;;2.55;;
8831;SDS011;4452;50.756;4.472;2023-09-30T12:04:40;4.28;;;2.75;;
8831;SDS011;4452;50.756;4.472;2023-09-30T12:07:07;3.75;;;2.53;;
8831;SDS011;4452;50.756;4.472;2023-09-30T12:09:33;8.18;;;2.92;;
8831;SDS011;4452;50.756;4.472;2023-09-30T12:12:02;4.35;;;2.88;;
8831;SDS011;4452;50.756;4.472;2023-09-30T12:14:28;10.60;;;3.17;;
8831;SDS011;4452;50.756;4.472;2023-09-30T12:16:56;6.78;;;3.08;;
8831;SDS011;4452;50.756;4.472;2023-09-30T12:19:22;8.77;;;3.42;;
8831;SDS011;4452;50.756;4.472;2023-09-30T12:21:47;7.00;;;3.08;;
8831;SDS011;4452;50.756;4.472;2023-09-30T12:24:14;8.50;;;3.30;;
8831;SDS011;4452;50.756;4.472;2023-09-30T12:26:45;6.80;;;2.95;;
8831;SDS011;4452;50.756;4.472;2023-09-30T12:29:16;9.00;;;2.80;;
8831;SDS011;4452;50.756;4.472;2023-09-30T12:31:46;12.75;;;3.80;;
8831;SDS011;4452;50.756;4.472;2023-09-30T12:34:16;5.18;;;3.20;;
8831;SDS011;4452;50.756;4.472;2023-09-30T12:36:42;7.53;;;3.60;;
8831;SDS011;4452;50.756;4.472;2023-09-30T12:39:09;3.53;;;3.03;;
8831;SDS011;4452;50.756;4.472;2023-09-30T12:41:38;7.22;;;3.22;;
8831;SDS011;4452;50.756;4.472;2023-09-30T12:44:08;4.15;;;3.20;;
8831;SDS011;4452;50.756;4.472;2023-09-30T12:46:34;6.38;;;3.15;;
8831;SDS011;4452;50.756;4.472;2023-09-30T12:49:07;5.80;;;2.92;;
8831;SDS011;4452;50.756;4.472;2023-09-30T12:51:33;6.80;;;3.00;;
8831;SDS011;4452;50.756;4.472;2023-09-30T12:54:00;4.85;;;3.00;;
8831;SDS011;4452;50.756;4.472;2023-09-30T12:56:26;8.27;;;2.65;;
8831;SDS011;4452;50.756;4.472;2023-09-30T12:58:54;6.88;;;3.10;;
8831;SDS011;4452;50.756;4.472;2023-09-30T13:01:20;8.68;;;2.95;;
8831;SDS011;4452;50.756;4.472;2023-09-30T13:03:47;5.10;;;3.03;;
8831;SDS011;4452;50.756;4.472;2023-09-30T13:06:13;5.05;;;2.70;;
8831;SDS011;4452;50.756;4.472;2023-09-30T13:08:41;5.57;;;3.08;;
8831;SDS011;4452;50.756;4.472;2023-09-30T13:11:07;5.25;;;2.60;;
8831;SDS011;4452;50.756;4.472;2023-09-30T13:13:33;4.72;;;2.83;;
8831;SDS011;4452;50.756;4.472;2023-09-30T13:16:00;3.15;;;2.55;;
8831;SDS011;4452;50.756;4.472;2023-09-30T13:18:26;2.72;;;2.42;;
8831;SDS011;4452;50.756;4.472;2023-09-30T13:20:52;7.32;;;2.80;;
8831;SDS011;4452;50.756;4.472;2023-09-30T13:23:18;4.45;;;2.90;;
8831;SDS011;4452;50.756;4.472;2023-09-30T13:25:44;3.70;;;2.63;;
8831;SDS011;4452;50.756;4.472;2023-09-30T13:28:10;11.68;;;3.10;;
8831;SDS011;4452;50.756;4.472;2023-09-30T13:30:37;5.63;;;3.00;;
8831;SDS011;4452;50.756;4.472;2023-09-30T13:33:03;4.75;;;3.22;;
8831;SDS011;4452;50.756;4.472;2023-09-30T13:35:29;5.45;;;2.90;;
8831;SDS011;4452;50.756;4.472;2023-09-30T13:37:55;3.78;;;2.65;;
8831;SDS011;4452;50.756;4.472;2023-09-30T13:40:20;7.85;;;3.00;;
8831;SDS011;4452;50.756;4.472;2023-09-30T13:42:46;7.43;;;3.08;;
8831;SDS011;4452;50.756;4.472;2023-09-30T13:45:12;6.00;;;2.88;;
8831;SDS011;4452;50.756;4.472;2023-09-30T13:47:38;10.55;;;3.40;;
8831;SDS011;4452;50.756;4.472;2023-09-30T13:50:04;3.55;;;2.40;;
8831;SDS011;4452;50.756;4.472;2023-09-30T13:52:33;5.80;;;2.70;;
8831;SDS011;4452;50.756;4.472;2023-09-30T13:54:59;5.40;;;2.83;;
8831;SDS011;4452;50.756;4.472;2023-09-30T13:57:25;2.88;;;2.60;;
8831;SDS011;4452;50.756;4.472;2023-09-30T13:59:51;5.50;;;2.72;;
8831;SDS011;4452;50.756;4.472;2023-09-30T14:02:17;4.20;;;2.88;;
8831;SDS011;4452;50.756;4.472;2023-09-30T14:04:42;5.65;;;3.10;;
8831;SDS011;4452;50.756;4.472;2023-09-30T14:07:09;5.22;;;3.13;;
8831;SDS011;4452;50.756;4.472;2023-09-30T14:09:34;4.95;;;2.97;;
8831;SDS011;4452;50.756;4.472;2023-09-30T14:12:00;10.48;;;2.88;;
8831;SDS011;4452;50.756;4.472;2023-09-30T14:14:29;11.15;;;3.00;;
8831;SDS011;4452;50.756;4.472;2023-09-30T14:16:57;7.20;;;2.92;;
8831;SDS011;4452;50.756;4.472;2023-09-30T14:19:22;5.53;;;3.17;;
8831;SDS011;4452;50.756;4.472;2023-09-30T14:21:48;8.75;;;3.60;;
8831;SDS011;4452;50.756;4.472;2023-09-30T14:24:14;3.35;;;2.90;;
8831;SDS011;4452;50.756;4.472;2023-09-30T14:26:40;8.18;;;3.20;;
8831;SDS011;4452;50.756;4.472;2023-09-30T14:29:06;6.40;;;3.17;;
8831;SDS011;4452;50.756;4.472;2023-09-30T14:31:31;6.13;;;2.97;;
8831;SDS011;4452;50.756;4.472;2023-09-30T14:33:57;4.30;;;2.60;;
8831;SDS011;4452;50.756;4.472;2023-09-30T14:36:23;5.45;;;3.67;;
8831;SDS011;4452;50.756;4.472;2023-09-30T14:38:48;9.05;;;2.80;;
8831;SDS011;4452;50.756;4.472;2023-09-30T14:41:14;2.95;;;2.72;;
8831;SDS011;4452;50.756;4.472;2023-09-30T14:43:40;5.47;;;3.28;;
8831;SDS011;4452;50.756;4.472;2023-09-30T14:46:06;4.78;;;3.13;;
8831;SDS011;4452;50.756;4.472;2023-09-30T14:48:33;5.32;;;3.17;;
8831;SDS011;4452;50.756;4.472;2023-09-30T14:50:59;6.22;;;3.05;;
8831;SDS011;4452;50.756;4.472;2023-09-30T14:53:25;7.70;;;3.20;;
8831;SDS011;4452;50.756;4.472;2023-09-30T14:55:50;4.55;;;3.10;;
8831;SDS011;4452;50.756;4.472;2023-09-30T14:58:16;4.20;;;3.00;;
8831;SDS011;4452;50.756;4.472;2023-09-30T15:00:42;6.18;;;3.25;;
8831;SDS011;4452;50.756;4.472;2023-09-30T15:03:08;4.78;;;3.00;;
8831;SDS011;4452;50.756;4.472;2023-09-30T15:05:34;5.10;;;3.10;;
8831;SDS011;4452;50.756;4.472;2023-09-30T15:08:00;4.85;;;3.47;;
8831;SDS011;4452;50.756;4.472;2023-09-30T15:10:29;5.30;;;3.20;;
8831;SDS011;4452;50.756;4.472;2023-09-30T15:12:54;4.80;;;2.63;;
8831;SDS011;4452;50.756;4.472;2023-09-30T15:15:22;5.43;;;3.30;;
8831;SDS011;4452;50.756;4.472;2023-09-30T15:17:48;6.68;;;2.90;;
8831;SDS011;4452;50.756;4.472;2023-09-30T15:20:14;5.10;;;3.13;;